createdAt,value
2019-05-29T00:03:39.402Z,6.30
2019-05-29T00:08:44.633Z,6.75
2019-05-29T00:13:50.262Z,5.62
2019-05-29T00:18:58.372Z,4.90
2019-05-29T00:24:03.901Z,4.80
2019-05-29T00:29:09.675Z,4.70
2019-05-29T00:34:15.304Z,4.57
2019-05-29T00:39:21.664Z,4.25
2019-05-29T00:44:34.338Z,4.40
2019-05-29T00:49:34.135Z,4.78
2019-05-29T00:54:39.501Z,5.25
2019-05-29T00:59:44.837Z,5.30
2019-05-29T01:04:50.053Z,5.35
2019-05-29T01:09:55.368Z,5.80
2019-05-29T01:15:00.673Z,6.22
2019-05-29T01:20:06.998Z,6.30
2019-05-29T01:25:12.478Z,6.20
2019-05-29T01:30:18.997Z,6.60
2019-05-29T01:35:24.529Z,6.43
2019-05-29T01:40:29.973Z,6.70
2019-05-29T01:45:35.233Z,6.33
2019-05-29T01:50:40.556Z,6.42
2019-05-29T01:55:46.155Z,6.62
2019-05-29T02:00:51.933Z,7.20
2019-05-29T02:05:57.618Z,7.80
2019-05-29T02:11:03.096Z,8.40
2019-05-29T02:16:08.726Z,8.30
2019-05-29T02:21:14.025Z,8.93
2019-05-29T02:26:20.375Z,8.48
2019-05-29T02:31:29.059Z,8.40
2019-05-29T02:36:34.275Z,8.75
2019-05-29T02:41:39.537Z,9.03
2019-05-29T02:46:44.758Z,8.90
2019-05-29T02:51:50.082Z,8.75
2019-05-29T02:56:55.406Z,8.80
2019-05-29T03:02:00.640Z,9.08
2019-05-29T03:07:05.892Z,9.88
2019-05-29T03:12:11.190Z,9.33
2019-05-29T03:17:16.473Z,9.58
2019-05-29T03:22:21.747Z,9.50
2019-05-29T03:27:27.831Z,9.67
2019-05-29T03:32:42.579Z,9.68
2019-05-29T03:37:40.199Z,10.05
2019-05-29T03:42:45.433Z,10.00
2019-05-29T03:47:50.680Z,9.97
2019-05-29T03:52:56.064Z,10.50
2019-05-29T03:58:01.510Z,9.90
2019-05-29T04:03:06.732Z,9.80
2019-05-29T04:08:13.067Z,10.05
2019-05-29T04:13:18.334Z,11.37
2019-05-29T04:18:25.177Z,12.07
2019-05-29T04:23:35.978Z,10.03
2019-05-29T04:28:41.428Z,8.90
2019-05-29T04:33:46.740Z,8.18
2019-05-29T04:38:51.995Z,7.83
2019-05-29T04:43:57.359Z,8.13
2019-05-29T04:49:02.670Z,8.03
2019-05-29T04:54:08.659Z,7.83
2019-05-29T04:59:15.626Z,8.53
2019-05-29T05:04:20.938Z,10.55
2019-05-29T05:09:26.290Z,8.63
2019-05-29T05:14:33.625Z,7.53
2019-05-29T05:19:40.063Z,7.53
2019-05-29T05:24:45.341Z,6.70
2019-05-29T05:29:52.253Z,6.05
2019-05-29T05:34:57.459Z,6.30
2019-05-29T05:40:02.718Z,6.08
2019-05-29T05:45:08.201Z,5.80
2019-05-29T05:50:13.813Z,5.97
2019-05-29T05:55:19.038Z,5.58
2019-05-29T06:00:35.842Z,5.47
2019-05-29T06:05:42.346Z,5.22
2019-05-29T06:10:51.170Z,4.80
2019-05-29T06:15:55.637Z,5.37
2019-05-29T06:21:01.333Z,4.60
2019-05-29T06:26:06.777Z,4.30
2019-05-29T06:31:12.463Z,4.10
2019-05-29T06:36:17.900Z,3.92
2019-05-29T06:41:23.452Z,3.87
2019-05-29T06:46:29.146Z,3.90
2019-05-29T06:51:35.196Z,3.58
2019-05-29T06:56:40.413Z,3.40
2019-05-29T07:01:45.749Z,3.57
2019-05-29T07:06:51.369Z,3.70
2019-05-29T07:11:57.051Z,3.65
2019-05-29T07:17:02.280Z,3.20
2019-05-29T07:22:07.499Z,3.70
2019-05-29T07:27:13.691Z,3.00
2019-05-29T07:32:19.084Z,3.10
2019-05-29T07:37:24.453Z,2.97
2019-05-29T07:42:29.748Z,2.53
2019-05-29T07:47:35.559Z,2.37
2019-05-29T07:52:41.161Z,2.50
2019-05-29T07:57:47.188Z,6.92
2019-05-29T08:02:52.500Z,2.33
2019-05-29T08:07:57.789Z,2.00
2019-05-29T08:13:03.946Z,2.20
2019-05-29T08:18:09.365Z,2.20
2019-05-29T08:23:14.660Z,2.10
2019-05-29T08:28:22.702Z,2.00
2019-05-29T08:33:28.999Z,1.87
2019-05-29T08:38:34.353Z,2.20
2019-05-29T08:43:39.803Z,2.00
2019-05-29T08:48:45.884Z,2.10
2019-05-29T08:53:53.426Z,2.08
2019-05-29T08:58:59.340Z,1.72
2019-05-29T09:04:05.917Z,1.98
2019-05-29T09:09:11.206Z,1.95
2019-05-29T09:14:16.520Z,1.82
2019-05-29T09:19:22.848Z,1.60
2019-05-29T09:24:28.491Z,1.63
2019-05-29T09:29:33.759Z,1.60
2019-05-29T09:34:38.978Z,1.70
2019-05-29T09:39:44.294Z,1.72
2019-05-29T09:44:49.555Z,2.00
2019-05-29T09:49:55.034Z,1.70
2019-05-29T09:55:00.478Z,1.40
2019-05-29T10:00:06.620Z,1.50
2019-05-29T10:05:12.099Z,1.30
2019-05-29T10:10:19.009Z,1.30
2019-05-29T10:15:24.675Z,1.40
2019-05-29T10:20:29.887Z,1.60
2019-05-29T10:25:35.239Z,1.27
2019-05-29T10:30:42.123Z,1.35
2019-05-29T10:35:49.644Z,1.27
2019-05-29T10:41:05.654Z,1.30
2019-05-29T10:46:02.094Z,1.40
2019-05-29T10:51:07.305Z,1.30
2019-05-29T10:56:12.610Z,1.20
2019-05-29T11:01:17.857Z,1.30
2019-05-29T11:06:23.187Z,1.12
2019-05-29T11:11:28.476Z,1.30
2019-05-29T11:16:33.711Z,2.12
2019-05-29T11:21:38.964Z,1.35
2019-05-29T11:26:44.253Z,1.20
2019-05-29T11:31:50.636Z,1.10
2019-05-29T11:38:40.088Z,1.00
2019-05-29T11:43:45.664Z,1.30
2019-05-29T11:48:51.158Z,1.20
2019-05-29T11:53:57.519Z,1.20
2019-05-29T11:59:03.375Z,1.20
2019-05-29T12:04:24.311Z,1.10
2019-05-29T12:09:31.479Z,1.20
2019-05-29T12:14:24.272Z,1.05
2019-05-29T12:19:32.126Z,1.00
2019-05-29T12:24:37.448Z,1.10
2019-05-29T12:29:44.047Z,0.90
2019-05-29T12:34:53.547Z,0.70
2019-05-29T12:39:57.515Z,0.90
2019-05-29T12:45:04.292Z,1.50
2019-05-29T12:50:11.957Z,1.27
2019-05-29T12:55:17.533Z,0.97
2019-05-29T13:00:23.338Z,0.93
2019-05-29T13:05:29.025Z,1.00
2019-05-29T13:10:35.978Z,2.20
2019-05-29T13:15:41.452Z,0.95
2019-05-29T13:20:48.163Z,0.72
2019-05-29T13:25:53.724Z,1.30
2019-05-29T13:30:59.828Z,1.17
2019-05-29T13:36:06.708Z,1.07
2019-05-29T13:41:12.143Z,1.90
2019-05-29T13:46:17.577Z,0.80
2019-05-29T13:51:23.016Z,0.90
2019-05-29T13:56:29.186Z,1.62
2019-05-29T14:01:34.580Z,1.20
2019-05-29T14:06:41.917Z,0.80
2019-05-29T14:11:48.670Z,1.30
2019-05-29T14:16:54.355Z,1.10
2019-05-29T14:22:01.130Z,0.90
2019-05-29T14:27:07.482Z,0.80
2019-05-29T14:32:13.840Z,0.93
2019-05-29T14:37:19.358Z,1.10
2019-05-29T14:42:24.644Z,1.02
2019-05-29T14:47:30.019Z,0.87
2019-05-29T14:52:35.820Z,0.90
2019-05-29T14:57:41.202Z,1.10
2019-05-29T15:02:46.602Z,1.10
2019-05-29T15:07:52.036Z,0.90
2019-05-29T15:12:58.526Z,0.90
2019-05-29T15:18:04.916Z,0.90
2019-05-29T15:23:11.496Z,0.90
2019-05-29T15:28:17.960Z,0.75
2019-05-29T15:33:23.334Z,1.00
2019-05-29T15:38:29.365Z,0.80
2019-05-29T15:43:34.700Z,0.80
2019-05-29T15:48:40.424Z,1.07
2019-05-29T15:53:47.937Z,1.00
2019-05-29T15:58:53.306Z,0.80
2019-05-29T16:03:58.527Z,1.00
2019-05-29T16:09:05.454Z,0.80
2019-05-29T16:14:10.792Z,0.98
2019-05-29T16:19:16.313Z,0.80
2019-05-29T16:24:23.016Z,0.77
2019-05-29T16:29:29.161Z,0.72
2019-05-29T16:34:34.398Z,0.62
2019-05-29T16:39:39.747Z,0.90
2019-05-29T16:44:45.053Z,1.20
2019-05-29T16:49:50.338Z,0.85
2019-05-29T16:54:55.817Z,0.80
2019-05-29T17:00:01.205Z,0.80
2019-05-29T17:05:06.835Z,0.80
2019-05-29T17:10:16.178Z,0.87
2019-05-29T17:15:22.711Z,0.78
2019-05-29T17:20:44.904Z,0.70
2019-05-29T17:25:51.190Z,0.75
2019-05-29T17:30:56.595Z,0.80
2019-05-29T17:36:01.910Z,0.80
2019-05-29T17:41:07.181Z,1.00
2019-05-29T17:46:12.742Z,0.90
2019-05-29T17:51:18.105Z,0.90
2019-05-29T17:56:34.575Z,0.80
2019-05-29T18:01:30.954Z,0.90
2019-05-29T18:06:37.735Z,0.80
2019-05-29T18:11:47.243Z,0.90
2019-05-29T18:16:50.213Z,0.80
2019-05-29T18:21:55.705Z,1.05
2019-05-29T18:27:02.076Z,0.90
2019-05-29T18:32:07.518Z,0.65
2019-05-29T18:37:13.255Z,1.05
2019-05-29T18:42:20.396Z,0.93
2019-05-29T18:47:27.011Z,0.80
2019-05-29T18:52:32.974Z,1.30
2019-05-29T18:57:38.574Z,0.80
2019-05-29T19:02:43.854Z,0.95
2019-05-29T19:07:49.348Z,0.83
2019-05-29T19:12:55.169Z,1.20
2019-05-29T19:18:00.413Z,1.20
2019-05-29T19:23:05.825Z,4.87
2019-05-29T19:28:11.838Z,2.30
2019-05-29T19:33:18.160Z,1.15
2019-05-29T19:38:23.745Z,0.98
2019-05-29T19:43:30.344Z,1.30
2019-05-29T19:48:35.659Z,1.30
2019-05-29T19:53:42.058Z,1.00
2019-05-29T19:58:47.335Z,1.00
2019-05-29T20:03:52.583Z,0.93
2019-05-29T20:08:58.039Z,0.90
2019-05-29T20:14:07.254Z,1.00
2019-05-29T20:19:10.307Z,1.00
2019-05-29T20:24:15.754Z,1.77
2019-05-29T20:29:21.064Z,3.10
2019-05-29T20:34:26.388Z,2.00
2019-05-29T20:39:32.966Z,1.80
2019-05-29T20:44:38.943Z,1.50
2019-05-29T20:49:47.457Z,1.30
2019-05-29T20:54:51.683Z,1.35
2019-05-29T20:59:57.101Z,1.40
2019-05-29T21:05:02.415Z,1.50
2019-05-29T21:10:09.040Z,1.47
2019-05-29T21:15:14.970Z,1.80
2019-05-29T21:20:21.056Z,2.20
2019-05-29T21:25:26.366Z,2.50
2019-05-29T21:30:31.587Z,2.80
2019-05-29T21:35:37.993Z,3.00
2019-05-29T21:40:44.560Z,2.33
2019-05-29T21:45:50.058Z,2.00
2019-05-29T21:50:55.352Z,2.10
2019-05-29T21:56:00.893Z,2.27
2019-05-29T22:01:07.114Z,2.20
2019-05-29T22:06:12.798Z,1.95
2019-05-29T22:11:18.211Z,2.00
2019-05-29T22:16:23.717Z,1.75
2019-05-29T22:21:29.132Z,1.70
2019-05-29T22:26:35.384Z,1.70
2019-05-29T22:31:40.725Z,1.80
2019-05-29T22:36:46.006Z,3.83
2019-05-29T22:41:51.517Z,2.22
2019-05-29T22:46:58.342Z,1.70
2019-05-29T22:52:03.741Z,1.80
2019-05-29T22:57:09.319Z,1.63
2019-05-29T23:02:14.632Z,1.82
2019-05-29T23:07:19.898Z,1.60
2019-05-29T23:12:25.189Z,2.07
2019-05-29T23:17:31.491Z,1.90
2019-05-29T23:22:38.489Z,1.80
2019-05-29T23:27:43.898Z,1.90
2019-05-29T23:32:49.219Z,2.10
2019-05-29T23:37:55.034Z,2.20
2019-05-29T23:43:01.589Z,2.20
2019-05-29T23:48:06.846Z,2.30
2019-05-29T23:53:12.084Z,2.40
2019-05-29T23:58:17.634Z,2.40
